createdAt,value
2022-08-16T00:01:21.686Z,99.90
2022-08-16T00:03:53.074Z,99.90
2022-08-16T00:06:20.342Z,99.90
2022-08-16T00:08:48.022Z,99.90
2022-08-16T00:11:16.762Z,99.90
2022-08-16T00:13:53.480Z,99.90
2022-08-16T00:17:05.330Z,99.90
2022-08-16T00:19:16.307Z,99.90
2022-08-16T00:21:43.801Z,99.90
2022-08-16T00:24:12.733Z,99.90
2022-08-16T00:26:44.042Z,99.90
2022-08-16T00:29:15.595Z,99.90
2022-08-16T00:31:59.539Z,99.90
2022-08-16T00:34:52.462Z,99.90
2022-08-16T00:37:17.314Z,99.90
2022-08-16T00:39:47.171Z,99.90
2022-08-16T00:42:29.609Z,99.90
2022-08-16T00:45:08.656Z,99.90
2022-08-16T00:47:40.278Z,99.90
2022-08-16T00:50:11.719Z,99.90
2022-08-16T00:52:45.840Z,99.90
2022-08-16T00:55:22.672Z,99.90
2022-08-16T00:57:59.758Z,99.90
2022-08-16T01:00:31.066Z,99.90
2022-08-16T01:03:01.251Z,99.90
2022-08-16T01:05:29.687Z,99.90
2022-08-16T01:07:59.642Z,99.90
2022-08-16T01:10:32.781Z,99.90
2022-08-16T01:13:12.480Z,99.90
2022-08-16T01:15:46.836Z,99.90
2022-08-16T01:18:39.830Z,99.90
2022-08-16T01:21:33.450Z,99.90
2022-08-16T01:24:02.416Z,99.90
2022-08-16T01:26:34.056Z,99.90
2022-08-16T01:29:09.890Z,99.90
2022-08-16T01:31:42.590Z,99.90
2022-08-16T01:34:24.975Z,99.90
2022-08-16T01:37:07.501Z,99.90
2022-08-16T01:39:36.449Z,99.90
2022-08-16T01:42:13.032Z,99.90
2022-08-16T01:44:41.984Z,99.90
2022-08-16T01:47:10.849Z,99.90
2022-08-16T01:49:45.437Z,99.90
2022-08-16T01:52:29.723Z,99.90
2022-08-16T01:54:58.151Z,99.90
2022-08-16T01:57:26.958Z,99.90
2022-08-16T01:59:55.022Z,99.90
2022-08-16T02:02:28.511Z,99.90
2022-08-16T02:04:57.529Z,99.90
2022-08-16T02:07:24.663Z,99.90
2022-08-16T02:09:57.333Z,99.90
2022-08-16T02:12:40.143Z,99.90
2022-08-16T02:15:17.888Z,99.90
2022-08-16T02:17:53.805Z,99.90
2022-08-16T02:20:26.346Z,99.90
2022-08-16T02:22:55.727Z,99.90
2022-08-16T02:25:23.002Z,99.90
2022-08-16T02:27:51.213Z,99.90
2022-08-16T02:30:37.518Z,99.90
2022-08-16T02:33:12.135Z,99.90
2022-08-16T02:35:54.200Z,99.90
2022-08-16T02:38:26.600Z,99.90
2022-08-16T02:40:54.377Z,99.90
2022-08-16T02:43:26.753Z,99.90
2022-08-16T02:45:55.138Z,99.90
2022-08-16T02:48:29.751Z,99.90
2022-08-16T02:51:10.429Z,99.90
2022-08-16T02:53:43.403Z,99.90
2022-08-16T02:56:14.808Z,99.90
2022-08-16T02:58:44.039Z,99.90
2022-08-16T03:01:16.603Z,99.90
2022-08-16T03:04:49.592Z,99.90
2022-08-16T03:06:43.161Z,99.90
2022-08-16T03:09:13.911Z,99.90
2022-08-16T03:11:43.349Z,99.90
2022-08-16T03:14:11.427Z,99.90
2022-08-16T03:16:58.753Z,99.90
2022-08-16T03:19:26.858Z,99.90
2022-08-16T03:22:19.324Z,99.90
2022-08-16T03:24:57.328Z,99.90
2022-08-16T03:27:24.355Z,99.90
2022-08-16T03:29:54.514Z,99.90
2022-08-16T03:32:21.943Z,99.90
2022-08-16T03:34:50.069Z,99.90
2022-08-16T03:37:17.480Z,99.90
2022-08-16T03:39:44.352Z,99.90
2022-08-16T03:42:11.090Z,99.90
2022-08-16T03:44:49.351Z,99.90
2022-08-16T03:47:19.050Z,99.90
2022-08-16T03:49:51.259Z,99.90
2022-08-16T03:52:20.612Z,99.90
2022-08-16T03:54:53.264Z,99.90
2022-08-16T03:57:24.724Z,99.90
2022-08-16T03:59:59.302Z,99.90
2022-08-16T04:02:31.745Z,99.90
2022-08-16T04:04:58.709Z,99.90
2022-08-16T04:07:25.711Z,99.90
2022-08-16T04:09:52.493Z,99.90
2022-08-16T04:12:54.661Z,99.90
2022-08-16T04:15:10.207Z,99.90
2022-08-16T04:17:37.172Z,99.90
2022-08-16T04:20:23.737Z,99.90
2022-08-16T04:22:56.136Z,99.90
2022-08-16T04:25:23.623Z,99.90
2022-08-16T04:27:56.078Z,99.90
2022-08-16T04:30:32.308Z,99.90
2022-08-16T04:33:04.513Z,99.90
2022-08-16T04:35:34.172Z,99.90
2022-08-16T04:38:11.117Z,99.90
2022-08-16T04:40:48.110Z,99.90
2022-08-16T04:43:17.504Z,99.90
2022-08-16T04:45:45.644Z,99.90
2022-08-16T04:48:12.500Z,99.90
2022-08-16T04:50:55.360Z,99.90
2022-08-16T04:53:22.943Z,99.90
2022-08-16T04:55:53.139Z,99.90
2022-08-16T04:58:44.945Z,99.90
2022-08-16T05:01:08.117Z,99.90
2022-08-16T05:03:35.900Z,99.90
2022-08-16T05:06:09.826Z,99.90
2022-08-16T05:08:37.661Z,99.90
2022-08-16T05:11:08.565Z,99.90
2022-08-16T05:13:40.379Z,99.90
2022-08-16T05:16:31.076Z,99.90
2022-08-16T05:18:59.888Z,99.90
2022-08-16T05:21:38.058Z,99.90
2022-08-16T05:24:07.244Z,99.90
2022-08-16T05:26:36.131Z,99.90
2022-08-16T05:29:04.754Z,99.90
2022-08-16T05:31:32.157Z,99.90
2022-08-16T05:34:03.022Z,99.90
2022-08-16T05:36:33.944Z,99.90
2022-08-16T05:39:09.559Z,99.90
2022-08-16T05:41:45.569Z,99.90
2022-08-16T05:44:24.001Z,99.90
2022-08-16T05:47:00.668Z,99.90
2022-08-16T05:49:39.962Z,99.90
2022-08-16T05:52:11.114Z,99.90
2022-08-16T05:54:46.742Z,99.90
2022-08-16T05:57:17.823Z,99.90
2022-08-16T05:59:50.341Z,99.90
2022-08-16T06:02:18.339Z,99.90
2022-08-16T06:04:45.752Z,99.90
2022-08-16T06:07:26.193Z,99.90
2022-08-16T06:09:56.237Z,99.90
2022-08-16T06:12:27.022Z,99.90
2022-08-16T06:15:04.373Z,99.90
2022-08-16T06:17:43.019Z,99.90
2022-08-16T06:20:14.925Z,99.90
2022-08-16T06:22:47.875Z,99.90
2022-08-16T06:25:36.320Z,99.90
2022-08-16T06:28:08.419Z,99.90
2022-08-16T06:30:36.114Z,99.90
2022-08-16T06:33:12.244Z,99.90
2022-08-16T06:35:40.582Z,99.90
2022-08-16T06:38:32.686Z,99.90
2022-08-16T06:40:55.799Z,99.90
2022-08-16T06:43:27.191Z,99.90
2022-08-16T06:45:54.905Z,99.90
2022-08-16T06:48:32.546Z,99.90
2022-08-16T06:51:00.815Z,99.90
2022-08-16T06:53:29.646Z,99.90
2022-08-16T06:55:58.801Z,99.90
2022-08-16T06:58:31.707Z,99.90
2022-08-16T07:01:01.260Z,99.90
2022-08-16T07:03:32.241Z,99.90
2022-08-16T07:05:59.851Z,99.90
2022-08-16T07:08:28.232Z,99.90
2022-08-16T07:10:56.480Z,99.90
2022-08-16T07:13:57.781Z,99.90
2022-08-16T07:16:15.447Z,99.90
2022-08-16T07:19:01.462Z,99.90
2022-08-16T07:21:45.685Z,99.90
2022-08-16T07:24:30.508Z,99.90
2022-08-16T07:26:58.832Z,99.90
2022-08-16T07:29:26.020Z,99.90
2022-08-16T07:31:53.953Z,99.90
2022-08-16T07:34:21.186Z,99.90
2022-08-16T07:37:09.657Z,99.90
2022-08-16T07:39:42.950Z,99.90
2022-08-16T07:42:10.834Z,99.90
2022-08-16T07:44:52.937Z,99.90
2022-08-16T07:47:24.474Z,99.90
2022-08-16T07:49:53.112Z,99.90
2022-08-16T07:52:29.874Z,99.90
2022-08-16T07:54:57.693Z,99.90
2022-08-16T07:57:24.885Z,99.90
2022-08-16T07:59:51.969Z,99.90
2022-08-16T08:02:20.090Z,99.90
2022-08-16T08:04:48.067Z,99.90
2022-08-16T08:07:16.148Z,99.90
2022-08-16T08:09:43.930Z,99.90
2022-08-16T08:12:32.193Z,99.90
2022-08-16T08:14:58.329Z,99.90
2022-08-16T08:17:43.243Z,99.90
2022-08-16T08:20:20.815Z,99.90
2022-08-16T08:23:00.822Z,99.90
2022-08-16T08:25:55.324Z,99.90
2022-08-16T08:28:18.482Z,99.90
2022-08-16T08:30:52.295Z,99.90
2022-08-16T08:33:29.261Z,99.90
2022-08-16T08:36:00.782Z,99.90
2022-08-16T08:38:44.902Z,99.90
2022-08-16T08:41:13.524Z,99.90
2022-08-16T08:43:42.910Z,99.90
2022-08-16T08:46:18.364Z,99.90
2022-08-16T08:48:59.757Z,99.90
2022-08-16T08:51:31.999Z,99.90
2022-08-16T08:54:06.547Z,99.90
2022-08-16T08:56:45.548Z,99.90
2022-08-16T08:59:20.230Z,99.90
2022-08-16T09:01:56.656Z,99.90
2022-08-16T09:04:27.111Z,99.90
2022-08-16T09:06:54.800Z,99.90
2022-08-16T09:09:23.071Z,99.90
2022-08-16T09:12:00.216Z,99.90
2022-08-16T09:14:31.719Z,99.90
2022-08-16T09:17:02.954Z,99.90
2022-08-16T09:19:34.256Z,99.90
2022-08-16T09:22:02.155Z,99.90
2022-08-16T09:24:51.852Z,99.90
2022-08-16T09:27:16.539Z,99.90
2022-08-16T09:29:45.721Z,99.90
2022-08-16T09:32:28.737Z,99.90
2022-08-16T09:34:58.164Z,99.90
2022-08-16T09:37:29.881Z,99.90
2022-08-16T09:40:00.609Z,99.90
2022-08-16T09:42:29.432Z,99.90
2022-08-16T09:45:11.824Z,99.90
2022-08-16T09:47:56.704Z,99.90
2022-08-16T09:50:36.848Z,99.90
2022-08-16T09:53:15.509Z,99.90
2022-08-16T09:55:49.630Z,99.90
2022-08-16T09:58:37.747Z,99.90
2022-08-16T10:01:11.740Z,99.90
2022-08-16T10:04:02.406Z,99.90
2022-08-16T10:06:33.499Z,99.90
2022-08-16T10:09:05.368Z,99.90
2022-08-16T10:11:53.229Z,99.90
2022-08-16T10:14:24.962Z,99.90
2022-08-16T10:17:04.959Z,99.90
2022-08-16T10:19:32.578Z,99.90
2022-08-16T10:22:04.940Z,99.90
2022-08-16T10:24:33.060Z,99.90
2022-08-16T10:27:26.573Z,99.90
2022-08-16T10:30:01.001Z,99.90
2022-08-16T10:32:34.588Z,99.90
2022-08-16T10:35:03.434Z,99.90
2022-08-16T10:37:36.300Z,99.90
2022-08-16T10:40:28.598Z,99.90
2022-08-16T10:42:57.944Z,99.90
2022-08-16T10:45:25.476Z,99.90
2022-08-16T10:48:00.606Z,99.90
2022-08-16T10:50:31.465Z,99.90
2022-08-16T10:52:59.402Z,99.90
2022-08-16T10:55:44.676Z,95.60
2022-08-16T10:58:16.866Z,92.20
2022-08-16T11:00:46.224Z,92.80
2022-08-16T11:06:03.440Z,86.70
2022-08-16T11:08:35.581Z,93.90
2022-08-16T11:11:12.900Z,98.00
2022-08-16T11:14:10.815Z,99.90
2022-08-16T11:19:20.787Z,99.60
2022-08-16T11:24:45.019Z,99.90
2022-08-16T11:27:24.078Z,99.90
2022-08-16T11:30:00.097Z,99.90
2022-08-16T11:32:32.251Z,99.90
2022-08-16T11:35:10.543Z,99.90
2022-08-16T11:40:32.357Z,99.90
2022-08-16T11:43:01.326Z,99.90
2022-08-16T11:45:28.302Z,99.90
2022-08-16T11:48:00.690Z,99.90
2022-08-16T11:50:27.912Z,99.90
2022-08-16T11:52:54.728Z,99.90
2022-08-16T11:55:23.649Z,99.90
2022-08-16T11:57:56.286Z,99.90
2022-08-16T12:00:42.662Z,99.90
2022-08-16T12:03:10.495Z,99.90
2022-08-16T12:05:39.612Z,99.90
2022-08-16T12:08:08.057Z,99.90
2022-08-16T12:10:38.972Z,99.90
2022-08-16T12:13:10.293Z,99.90
2022-08-16T12:15:37.813Z,99.90
2022-08-16T12:18:06.892Z,99.90
2022-08-16T12:20:39.301Z,99.90
2022-08-16T12:23:06.873Z,99.90
2022-08-16T12:25:36.163Z,99.90
2022-08-16T12:28:06.903Z,99.90
2022-08-16T12:30:38.460Z,99.90
2022-08-16T12:33:08.745Z,99.90
2022-08-16T12:35:37.759Z,99.90
2022-08-16T12:38:23.088Z,99.90
2022-08-16T12:40:57.040Z,99.90
2022-08-16T12:43:25.336Z,99.90
2022-08-16T12:45:55.245Z,99.90
2022-08-16T12:48:44.230Z,99.90
2022-08-16T12:51:22.367Z,99.90
2022-08-16T12:53:54.978Z,99.90
2022-08-16T12:56:26.107Z,99.90
2022-08-16T12:58:53.778Z,99.90
2022-08-16T13:01:26.855Z,99.90
2022-08-16T13:04:11.518Z,99.90
2022-08-16T13:06:43.129Z,99.90
2022-08-16T13:09:26.448Z,99.90
2022-08-16T13:12:21.017Z,99.90
2022-08-16T13:14:50.113Z,99.90
2022-08-16T13:17:21.604Z,99.90
2022-08-16T13:22:43.854Z,99.90
2022-08-16T13:25:19.405Z,99.90
2022-08-16T13:28:02.280Z,99.90
2022-08-16T13:30:37.636Z,99.90
2022-08-16T13:33:13.369Z,99.90
2022-08-16T13:35:44.660Z,99.90
2022-08-16T13:38:24.578Z,99.90
2022-08-16T13:40:56.988Z,99.90
2022-08-16T13:43:27.921Z,99.90
2022-08-16T13:45:57.505Z,99.90
2022-08-16T13:48:26.124Z,99.90
2022-08-16T13:51:01.487Z,99.90
2022-08-16T13:53:31.726Z,99.90
2022-08-16T13:55:59.602Z,99.90
2022-08-16T13:58:35.659Z,99.90
2022-08-16T14:01:09.520Z,99.90
2022-08-16T14:03:38.806Z,99.90
2022-08-16T14:06:10.845Z,99.90
2022-08-16T14:08:42.225Z,99.90
2022-08-16T14:11:14.348Z,99.90
2022-08-16T14:13:43.814Z,99.90
2022-08-16T14:16:23.551Z,99.90
2022-08-16T14:18:52.773Z,99.90
2022-08-16T14:21:21.994Z,99.90
2022-08-16T14:23:52.093Z,99.90
2022-08-16T14:26:21.296Z,99.90
2022-08-16T14:28:50.360Z,99.90
2022-08-16T14:31:17.621Z,99.90
2022-08-16T14:33:45.472Z,99.90
2022-08-16T14:36:25.087Z,99.90
2022-08-16T14:38:57.128Z,99.90
2022-08-16T14:41:24.258Z,99.90
2022-08-16T14:43:51.033Z,99.90
2022-08-16T14:46:19.795Z,99.90
2022-08-16T14:48:46.823Z,99.90
2022-08-16T14:51:15.787Z,99.90
2022-08-16T14:53:45.143Z,99.90
2022-08-16T14:56:15.064Z,99.90
2022-08-16T14:59:00.334Z,99.90
2022-08-16T15:01:57.724Z,99.90
2022-08-16T15:04:39.542Z,99.90
2022-08-16T15:07:02.109Z,99.90
2022-08-16T15:09:31.961Z,99.90
2022-08-16T15:12:26.510Z,99.90
2022-08-16T15:14:56.223Z,99.90
2022-08-16T15:17:25.443Z,99.90
2022-08-16T15:19:54.057Z,99.90
2022-08-16T15:22:30.042Z,99.90
2022-08-16T15:25:02.185Z,99.90
2022-08-16T15:27:35.568Z,99.90
2022-08-16T15:30:09.187Z,99.90
2022-08-16T15:32:59.963Z,99.90
2022-08-16T15:35:26.796Z,99.90
2022-08-16T15:37:56.823Z,99.90
2022-08-16T15:40:26.626Z,99.90
2022-08-16T15:43:02.513Z,99.90
2022-08-16T15:45:48.324Z,99.90
2022-08-16T15:48:28.667Z,99.90
2022-08-16T15:50:59.119Z,99.90
2022-08-16T15:53:27.357Z,99.90
2022-08-16T15:55:55.413Z,99.90
2022-08-16T15:58:35.336Z,99.90
2022-08-16T16:01:05.643Z,99.90
2022-08-16T16:03:34.419Z,99.90
2022-08-16T16:06:02.744Z,99.90
2022-08-16T16:08:31.143Z,99.90
2022-08-16T16:11:05.158Z,99.90
2022-08-16T16:13:33.258Z,99.90
2022-08-16T16:16:06.770Z,99.90
2022-08-16T16:18:49.115Z,99.90
2022-08-16T16:21:19.909Z,99.90
2022-08-16T16:23:54.923Z,99.90
2022-08-16T16:26:24.996Z,99.90
2022-08-16T16:29:07.477Z,99.90
2022-08-16T16:31:36.152Z,99.90
2022-08-16T16:34:04.157Z,99.90
2022-08-16T16:36:34.483Z,99.90
2022-08-16T16:39:03.750Z,99.90
2022-08-16T16:41:32.120Z,99.90
2022-08-16T16:44:00.912Z,99.90
2022-08-16T16:46:41.337Z,99.90
2022-08-16T16:49:11.586Z,99.90
2022-08-16T16:51:40.651Z,99.90
2022-08-16T16:54:08.866Z,99.90
2022-08-16T16:56:37.709Z,99.90
2022-08-16T16:59:10.114Z,99.90
2022-08-16T17:01:59.410Z,99.90
2022-08-16T17:04:32.563Z,99.90
2022-08-16T17:07:01.561Z,99.90
2022-08-16T17:09:28.754Z,99.90
2022-08-16T17:11:56.529Z,99.90
2022-08-16T17:14:32.384Z,99.90
2022-08-16T17:17:04.224Z,99.90
2022-08-16T17:19:31.726Z,99.90
2022-08-16T17:21:59.568Z,99.90
2022-08-16T17:24:33.122Z,99.90
2022-08-16T17:27:06.771Z,99.90
2022-08-16T17:29:33.559Z,99.90
2022-08-16T17:32:02.435Z,99.90
2022-08-16T17:34:50.607Z,99.90
2022-08-16T17:37:22.278Z,99.90
2022-08-16T17:40:23.333Z,99.90
2022-08-16T17:42:55.679Z,99.90
2022-08-16T17:45:23.770Z,99.90
2022-08-16T17:47:51.407Z,99.90
2022-08-16T17:50:19.045Z,99.90
2022-08-16T17:52:54.238Z,99.90
2022-08-16T17:55:24.234Z,99.90
2022-08-16T17:57:52.299Z,99.90
2022-08-16T18:00:20.572Z,99.90
2022-08-16T18:02:50.285Z,99.90
2022-08-16T18:05:18.246Z,99.90
2022-08-16T18:07:45.229Z,99.90
2022-08-16T18:10:12.732Z,99.90
2022-08-16T18:12:55.495Z,99.90
2022-08-16T18:15:24.197Z,99.90
2022-08-16T18:17:53.089Z,99.90
2022-08-16T18:20:41.155Z,99.90
2022-08-16T18:23:21.872Z,99.90
2022-08-16T18:25:54.808Z,99.90
2022-08-16T18:28:22.638Z,99.90
2022-08-16T18:30:51.986Z,99.90
2022-08-16T18:33:22.395Z,99.90
2022-08-16T18:35:52.059Z,99.90
2022-08-16T18:38:21.283Z,99.90
2022-08-16T18:40:48.575Z,99.90
2022-08-16T18:43:18.771Z,99.90
2022-08-16T18:45:54.503Z,99.90
2022-08-16T18:48:34.069Z,99.90
2022-08-16T18:51:05.074Z,99.90
2022-08-16T18:53:41.061Z,99.90
2022-08-16T18:56:07.907Z,99.90
2022-08-16T18:58:36.096Z,99.90
2022-08-16T19:01:03.206Z,99.90
2022-08-16T19:03:32.451Z,99.90
2022-08-16T19:06:06.219Z,99.90
2022-08-16T19:08:38.048Z,99.90
2022-08-16T19:11:07.354Z,99.90
2022-08-16T19:13:35.274Z,99.90
2022-08-16T19:16:04.267Z,99.90
2022-08-16T19:18:36.791Z,99.90
2022-08-16T19:21:05.446Z,99.90
2022-08-16T19:23:35.875Z,99.90
2022-08-16T19:26:24.392Z,99.90
2022-08-16T19:28:59.070Z,99.90
2022-08-16T19:31:36.472Z,99.90
2022-08-16T19:34:04.877Z,99.90
2022-08-16T19:36:36.705Z,99.90
2022-08-16T19:39:08.764Z,99.90
2022-08-16T19:41:41.234Z,99.90
2022-08-16T19:44:08.628Z,99.90
2022-08-16T19:46:38.451Z,99.90
2022-08-16T19:49:05.993Z,99.90
2022-08-16T19:51:32.943Z,99.90
2022-08-16T19:53:59.972Z,99.90
2022-08-16T19:56:27.149Z,99.90
2022-08-16T20:01:43.787Z,99.90
2022-08-16T20:04:16.270Z,99.90
2022-08-16T20:06:43.258Z,99.90
2022-08-16T20:09:12.656Z,99.90
2022-08-16T20:11:42.020Z,99.90
2022-08-16T20:14:11.305Z,99.90
2022-08-16T20:16:47.130Z,99.90
2022-08-16T20:19:14.415Z,99.90
2022-08-16T20:21:41.685Z,99.90
2022-08-16T20:24:32.151Z,99.90
2022-08-16T20:26:55.954Z,99.90
2022-08-16T20:29:23.095Z,99.90
2022-08-16T20:31:50.081Z,99.90
2022-08-16T20:34:17.143Z,99.90
2022-08-16T20:36:45.615Z,99.90
2022-08-16T20:39:13.675Z,99.90
2022-08-16T20:41:43.007Z,99.90
2022-08-16T20:44:11.407Z,99.90
2022-08-16T20:46:39.927Z,99.90
2022-08-16T20:49:09.249Z,99.90
2022-08-16T20:51:49.015Z,99.90
2022-08-16T20:54:18.322Z,99.90
2022-08-16T20:56:45.202Z,99.90
2022-08-16T20:59:11.993Z,99.90
2022-08-16T21:01:47.081Z,99.90
2022-08-16T21:04:22.931Z,99.90
2022-08-16T21:06:54.265Z,99.90
2022-08-16T21:09:33.607Z,99.90
2022-08-16T21:12:08.914Z,99.90
2022-08-16T21:14:38.960Z,99.90
2022-08-16T21:17:08.309Z,99.90
2022-08-16T21:19:35.665Z,99.90
2022-08-16T21:22:20.930Z,99.90
2022-08-16T21:24:48.818Z,99.90
2022-08-16T21:27:20.855Z,99.90
2022-08-16T21:29:49.134Z,99.90
2022-08-16T21:32:34.578Z,99.90
2022-08-16T21:35:11.254Z,99.90
2022-08-16T21:37:40.377Z,99.90
2022-08-16T21:40:09.240Z,99.90
2022-08-16T21:42:37.662Z,99.90
2022-08-16T21:45:05.090Z,99.90
2022-08-16T21:47:31.818Z,99.90
2022-08-16T21:49:58.598Z,99.90
2022-08-16T21:52:26.271Z,99.90
2022-08-16T21:54:56.407Z,99.90
2022-08-16T21:57:23.873Z,99.90
2022-08-16T21:59:56.355Z,99.90
2022-08-16T22:02:25.506Z,99.90
2022-08-16T22:04:52.263Z,99.90
2022-08-16T22:07:19.081Z,99.90
2022-08-16T22:09:47.328Z,99.90
2022-08-16T22:12:28.094Z,99.90
2022-08-16T22:14:54.801Z,99.90
2022-08-16T22:17:21.727Z,99.90
2022-08-16T22:19:48.839Z,99.90
2022-08-16T22:22:15.535Z,99.90
2022-08-16T22:24:42.215Z,99.90
2022-08-16T22:27:09.127Z,99.90
2022-08-16T22:29:35.805Z,99.90
2022-08-16T22:32:07.594Z,99.90
2022-08-16T22:34:34.700Z,99.90
2022-08-16T22:37:01.521Z,99.90
2022-08-16T22:39:28.500Z,99.90
2022-08-16T22:41:55.438Z,99.90
2022-08-16T22:44:22.367Z,99.90
2022-08-16T22:46:49.405Z,99.90
2022-08-16T22:49:16.393Z,99.90
2022-08-16T22:51:43.133Z,99.90
2022-08-16T22:54:47.342Z,99.90
2022-08-16T22:56:58.053Z,99.90
2022-08-16T22:59:25.259Z,99.90
2022-08-16T23:01:52.611Z,99.90
2022-08-16T23:04:19.558Z,99.90
2022-08-16T23:06:46.298Z,99.90
2022-08-16T23:09:13.033Z,99.90
2022-08-16T23:11:40.434Z,99.90
2022-08-16T23:14:07.135Z,99.90
2022-08-16T23:16:35.059Z,99.90
2022-08-16T23:19:08.270Z,99.90
2022-08-16T23:21:37.374Z,99.90
2022-08-16T23:24:05.965Z,99.90
2022-08-16T23:26:45.090Z,99.90
2022-08-16T23:29:24.262Z,99.90
2022-08-16T23:31:59.355Z,99.90
2022-08-16T23:34:28.046Z,99.90
2022-08-16T23:36:55.245Z,99.90
2022-08-16T23:39:22.360Z,99.90
2022-08-16T23:41:49.187Z,99.90
2022-08-16T23:44:56.146Z,99.90
2022-08-16T23:47:05.055Z,99.90
2022-08-16T23:50:01.178Z,99.90
2022-08-16T23:52:39.311Z,99.90
2022-08-16T23:55:09.045Z,99.90
2022-08-16T23:57:35.786Z,99.90
